createdAt,value
2024-03-06T00:00:14.860Z,7.53
2024-03-06T00:02:43.255Z,11.53
2024-03-06T00:05:10.598Z,7.57
2024-03-06T00:07:37.670Z,6.67
2024-03-06T00:10:06.427Z,6.40
2024-03-06T00:12:34.037Z,6.83
2024-03-06T00:15:01.522Z,8.27
2024-03-06T00:17:28.621Z,6.10
2024-03-06T00:19:55.625Z,6.80
2024-03-06T00:22:24.038Z,8.13
2024-03-06T00:24:52.201Z,6.13
2024-03-06T00:27:20.726Z,9.50
2024-03-06T00:29:47.524Z,6.10
2024-03-06T00:32:14.340Z,6.87
2024-03-06T00:34:41.723Z,7.63
2024-03-06T00:37:08.516Z,12.83
2024-03-06T00:39:36.274Z,9.70
2024-03-06T00:42:03.746Z,7.63
2024-03-06T00:44:31.405Z,8.10
2024-03-06T00:46:58.318Z,8.63
2024-03-06T00:49:25.188Z,10.50
2024-03-06T00:51:51.953Z,9.93
2024-03-06T00:54:19.056Z,9.53
2024-03-06T00:56:45.841Z,5.77
2024-03-06T00:59:13.014Z,8.60
2024-03-06T01:01:40.095Z,9.37
2024-03-06T01:04:07.372Z,8.67
2024-03-06T01:10:53.182Z,7.73
2024-03-06T01:13:22.442Z,7.30
2024-03-06T01:15:49.285Z,7.87
2024-03-06T01:18:16.131Z,7.60
2024-03-06T01:20:43.164Z,7.67
2024-03-06T01:23:10.403Z,9.90
2024-03-06T01:25:37.250Z,8.03
2024-03-06T01:28:04.340Z,10.43
2024-03-06T01:30:31.090Z,8.57
2024-03-06T01:32:58.173Z,9.60
2024-03-06T01:35:25.255Z,10.17
2024-03-06T01:37:52.036Z,12.10
2024-03-06T01:40:19.075Z,11.20
2024-03-06T01:42:48.356Z,8.43
2024-03-06T01:45:15.191Z,9.03
2024-03-06T01:47:42.054Z,8.87
2024-03-06T01:50:10.747Z,8.37
2024-03-06T01:52:40.916Z,8.40
2024-03-06T01:55:08.819Z,8.57
2024-03-06T01:57:35.880Z,8.30
2024-03-06T02:00:04.591Z,10.73
2024-03-06T02:02:32.817Z,10.43
2024-03-06T02:05:01.283Z,8.70
2024-03-06T02:07:33.031Z,10.27
2024-03-06T02:09:59.950Z,8.37
2024-03-06T02:12:26.744Z,12.13
2024-03-06T02:14:53.675Z,13.37
2024-03-06T02:17:20.535Z,6.97
2024-03-06T02:19:47.259Z,8.20
2024-03-06T02:22:14.109Z,11.23
2024-03-06T02:24:46.584Z,10.80
2024-03-06T02:27:13.807Z,9.40
2024-03-06T02:29:40.642Z,11.40
2024-03-06T02:32:07.514Z,11.60
2024-03-06T02:34:34.447Z,5.80
2024-03-06T02:37:01.623Z,7.63
2024-03-06T02:39:28.386Z,11.70
2024-03-06T02:41:55.219Z,14.17
2024-03-06T02:44:22.171Z,9.90
2024-03-06T02:46:50.262Z,9.80
2024-03-06T02:49:18.626Z,9.60
2024-03-06T02:51:46.166Z,8.40
2024-03-06T02:54:13.365Z,7.13
2024-03-06T02:56:40.079Z,9.33
2024-03-06T02:59:07.369Z,7.70
2024-03-06T03:01:34.255Z,7.00
2024-03-06T03:04:01.469Z,9.53
2024-03-06T03:06:29.857Z,8.13
2024-03-06T03:08:57.447Z,9.97
2024-03-06T03:11:24.395Z,5.60
2024-03-06T03:13:51.553Z,8.93
2024-03-06T03:16:19.865Z,13.63
2024-03-06T03:18:47.702Z,8.70
2024-03-06T03:21:15.902Z,6.53
2024-03-06T03:23:42.854Z,7.47
2024-03-06T03:26:13.349Z,11.30
2024-03-06T03:28:40.798Z,4.80
2024-03-06T03:31:10.304Z,8.00
2024-03-06T03:33:41.654Z,5.80
2024-03-06T03:36:09.433Z,5.40
2024-03-06T03:38:39.789Z,7.47
2024-03-06T03:41:10.886Z,5.60
2024-03-06T03:43:38.061Z,6.60
2024-03-06T03:46:05.532Z,4.30
2024-03-06T03:48:32.937Z,4.30
2024-03-06T03:50:59.752Z,4.13
2024-03-06T03:53:26.548Z,6.63
2024-03-06T03:55:53.337Z,5.50
2024-03-06T03:58:20.392Z,7.47
2024-03-06T04:00:47.637Z,7.47
2024-03-06T04:03:14.713Z,6.60
2024-03-06T04:05:41.462Z,8.50
2024-03-06T04:08:08.634Z,4.93
2024-03-06T04:10:35.686Z,6.30
2024-03-06T04:13:02.554Z,3.77
2024-03-06T04:15:30.148Z,6.23
2024-03-06T04:17:56.917Z,6.40
2024-03-06T04:20:23.731Z,5.93
2024-03-06T04:22:52.219Z,5.27
2024-03-06T04:25:19.173Z,14.10
2024-03-06T04:27:46.127Z,9.90
2024-03-06T04:30:13.417Z,4.67
2024-03-06T04:32:40.295Z,5.60
2024-03-06T04:35:08.379Z,5.83
2024-03-06T04:37:35.570Z,6.70
2024-03-06T04:40:04.041Z,8.40
2024-03-06T04:42:30.969Z,6.37
2024-03-06T04:44:57.807Z,9.10
2024-03-06T04:47:27.313Z,7.00
2024-03-06T04:49:56.109Z,8.63
2024-03-06T04:52:22.841Z,6.10
2024-03-06T04:54:49.591Z,8.40
2024-03-06T04:57:16.302Z,10.20
2024-03-06T04:59:43.326Z,5.17
2024-03-06T05:02:10.246Z,5.30
2024-03-06T05:59:38.712Z,8.13
2024-03-06T06:02:05.484Z,5.97
2024-03-06T06:04:38.542Z,6.43
2024-03-06T06:07:08.177Z,5.47
2024-03-06T06:09:34.962Z,6.30
2024-03-06T06:12:01.793Z,5.07
2024-03-06T06:14:30.524Z,4.90
2024-03-06T06:16:58.135Z,7.43
2024-03-06T06:19:25.317Z,5.97
2024-03-06T06:21:55.580Z,5.37
2024-03-06T06:24:22.509Z,4.57
2024-03-06T06:26:49.403Z,6.90
2024-03-06T06:29:16.356Z,5.90
2024-03-06T06:31:43.336Z,3.83
2024-03-06T06:34:10.430Z,2.90
2024-03-06T06:36:38.744Z,4.20
2024-03-06T06:39:07.201Z,4.80
2024-03-06T06:41:34.198Z,4.57
2024-03-06T06:44:01.325Z,6.23
2024-03-06T06:46:28.154Z,5.10
2024-03-06T06:48:54.922Z,4.30
2024-03-06T06:51:22.066Z,8.00
2024-03-06T06:53:48.809Z,7.10
2024-03-06T06:56:15.709Z,4.93
2024-03-06T06:58:44.520Z,7.17
2024-03-06T07:01:11.268Z,6.73
2024-03-06T07:03:38.344Z,9.33
2024-03-06T07:06:05.825Z,5.27
2024-03-06T07:08:33.662Z,5.10
2024-03-06T07:11:00.749Z,4.73
2024-03-06T07:13:27.594Z,6.60
2024-03-06T07:15:54.350Z,6.77
2024-03-06T07:18:21.211Z,5.40
2024-03-06T07:20:48.692Z,5.60
2024-03-06T07:23:15.503Z,3.73
2024-03-06T07:25:42.662Z,9.13
2024-03-06T07:28:10.136Z,5.53
2024-03-06T07:30:37.181Z,6.07
2024-03-06T07:33:04.104Z,9.30
2024-03-06T07:35:30.883Z,4.90
2024-03-06T07:37:58.165Z,6.93
2024-03-06T07:40:25.039Z,7.87
2024-03-06T07:42:52.245Z,9.47
2024-03-06T07:45:18.970Z,3.47
2024-03-06T07:47:46.381Z,4.77
2024-03-06T07:50:13.869Z,4.13
2024-03-06T07:52:40.824Z,7.10
2024-03-06T07:55:07.920Z,7.87
2024-03-06T07:57:34.639Z,4.57
2024-03-06T08:00:01.464Z,11.60
2024-03-06T08:02:29.346Z,13.97
2024-03-06T08:04:56.294Z,7.07
2024-03-06T08:07:23.118Z,7.73
2024-03-06T08:09:49.925Z,7.33
2024-03-06T08:12:16.760Z,12.37
2024-03-06T08:14:43.552Z,5.93
2024-03-06T08:17:10.377Z,6.37
2024-03-06T08:19:37.205Z,6.57
2024-03-06T08:22:06.726Z,5.73
2024-03-06T08:24:33.955Z,5.40
2024-03-06T08:27:01.308Z,7.13
2024-03-06T08:29:28.800Z,5.53
2024-03-06T08:31:59.090Z,6.27
2024-03-06T08:34:26.158Z,6.20
2024-03-06T08:36:54.278Z,4.07
2024-03-06T08:39:21.036Z,8.43
2024-03-06T08:41:47.886Z,9.87
2024-03-06T08:44:15.501Z,11.40
2024-03-06T08:46:42.937Z,9.00
2024-03-06T08:49:11.342Z,8.30
2024-03-06T08:51:38.354Z,7.70
2024-03-06T08:54:05.240Z,9.67
2024-03-06T08:56:32.097Z,6.47
2024-03-06T08:58:58.945Z,13.20
2024-03-06T09:01:26.669Z,8.53
2024-03-06T09:03:53.609Z,9.77
2024-03-06T09:06:20.488Z,15.13
2024-03-06T09:08:49.814Z,13.03
2024-03-06T09:11:16.673Z,8.67
2024-03-06T09:13:46.618Z,9.17
2024-03-06T09:16:13.468Z,9.53
2024-03-06T09:18:40.573Z,8.67
2024-03-06T09:21:07.593Z,9.20
2024-03-06T09:23:34.929Z,7.87
2024-03-06T09:26:01.727Z,8.33
2024-03-06T09:28:28.669Z,8.97
2024-03-06T09:30:55.462Z,16.53
2024-03-06T09:33:22.394Z,12.07
2024-03-06T09:35:49.340Z,6.00
2024-03-06T09:38:19.958Z,11.30
2024-03-06T09:40:47.602Z,9.00
2024-03-06T09:43:14.443Z,8.23
2024-03-06T09:45:41.385Z,9.10
2024-03-06T09:48:10.056Z,7.27
2024-03-06T09:50:39.102Z,6.90
2024-03-06T09:53:07.307Z,6.63
2024-03-06T09:55:36.029Z,7.77
2024-03-06T09:58:06.308Z,9.03
2024-03-06T10:00:34.115Z,8.50
2024-03-06T10:03:02.204Z,25.77
2024-03-06T10:05:29.558Z,8.70
2024-03-06T10:07:56.654Z,13.67
2024-03-06T10:10:26.210Z,15.57
2024-03-06T10:12:53.557Z,9.20
2024-03-06T10:15:22.627Z,10.70
2024-03-06T10:17:53.598Z,10.87
2024-03-06T10:20:25.394Z,7.17
2024-03-06T10:22:58.742Z,10.60
2024-03-06T10:25:28.638Z,10.40
2024-03-06T10:28:12.801Z,10.93
2024-03-06T10:30:45.346Z,13.60
2024-03-06T10:33:13.531Z,12.50
2024-03-06T10:35:44.517Z,12.30
2024-03-06T10:38:14.016Z,15.20
2024-03-06T10:40:45.049Z,11.93
2024-03-06T10:43:12.622Z,19.13
2024-03-06T10:45:48.208Z,12.37
2024-03-06T10:48:16.265Z,11.73
2024-03-06T10:50:45.510Z,9.33
2024-03-06T10:53:16.716Z,10.00
2024-03-06T10:55:46.198Z,9.73
2024-03-06T10:58:13.993Z,12.87
2024-03-06T11:00:42.651Z,11.77
2024-03-06T11:03:13.448Z,15.93
2024-03-06T11:05:41.332Z,14.27
2024-03-06T11:08:14.041Z,12.10
2024-03-06T11:10:43.088Z,12.17
2024-03-06T11:13:23.999Z,14.07
2024-03-06T11:15:53.388Z,11.87
2024-03-06T11:18:40.478Z,10.13
2024-03-06T11:21:13.227Z,11.90
2024-03-06T11:24:12.190Z,11.37
2024-03-06T11:26:44.173Z,11.47
2024-03-06T11:29:11.079Z,10.80
2024-03-06T11:31:37.966Z,14.77
2024-03-06T11:34:05.654Z,14.03
2024-03-06T11:36:32.766Z,10.70
2024-03-06T11:39:04.143Z,15.13
2024-03-06T11:41:52.394Z,11.50
2024-03-06T11:44:24.684Z,14.33
2024-03-06T11:47:05.000Z,12.63
2024-03-06T11:49:34.950Z,10.10
2024-03-06T11:52:09.568Z,9.17
2024-03-06T11:54:37.346Z,12.00
2024-03-06T11:57:05.547Z,11.07
2024-03-06T11:59:35.274Z,11.43
2024-03-06T12:02:06.870Z,12.27
2024-03-06T12:04:38.386Z,12.73
2024-03-06T12:07:10.645Z,11.53
2024-03-06T12:09:42.101Z,10.77
2024-03-06T12:12:12.230Z,14.43
2024-03-06T12:14:42.840Z,14.90
2024-03-06T12:17:16.692Z,25.23
2024-03-06T12:19:46.182Z,17.40
2024-03-06T12:22:13.541Z,16.50
2024-03-06T12:24:40.550Z,17.40
2024-03-06T12:27:09.077Z,18.10
2024-03-06T12:29:37.120Z,15.03
2024-03-06T12:32:04.365Z,26.17
2024-03-06T12:34:31.511Z,16.00
2024-03-06T12:37:10.800Z,18.37
2024-03-06T12:39:40.725Z,20.37
2024-03-06T12:42:09.781Z,26.40
2024-03-06T12:44:36.652Z,15.47
2024-03-06T12:47:03.519Z,17.43
2024-03-06T12:49:30.475Z,13.60
2024-03-06T12:51:57.337Z,19.23
2024-03-06T12:54:24.533Z,25.33
2024-03-06T12:56:52.097Z,15.13
2024-03-06T12:59:18.916Z,16.13
2024-03-06T13:01:48.507Z,21.00
2024-03-06T13:04:15.302Z,14.07
2024-03-06T13:06:42.163Z,14.27
2024-03-06T13:09:08.994Z,14.03
2024-03-06T13:11:35.944Z,17.23
2024-03-06T13:14:02.761Z,13.40
2024-03-06T13:16:29.810Z,15.27
2024-03-06T13:18:58.498Z,19.40
2024-03-06T13:21:25.728Z,16.20
2024-03-06T13:23:52.553Z,15.03
2024-03-06T13:26:19.911Z,14.73
2024-03-06T13:28:47.188Z,15.23
2024-03-06T13:31:14.441Z,16.80
2024-03-06T13:33:41.711Z,13.97
2024-03-06T13:36:12.206Z,14.43
2024-03-06T13:38:39.062Z,13.17
2024-03-06T13:41:06.216Z,12.90
2024-03-06T13:43:33.858Z,19.70
2024-03-06T13:46:00.669Z,13.67
2024-03-06T13:48:27.455Z,14.80
2024-03-06T13:50:54.313Z,17.43
2024-03-06T13:53:21.204Z,20.50
2024-03-06T13:55:51.262Z,23.87
2024-03-06T13:58:18.501Z,17.00
2024-03-06T14:00:45.488Z,26.03
2024-03-06T14:03:13.153Z,33.17
2024-03-06T14:05:40.719Z,16.27
2024-03-06T14:08:08.759Z,27.13
2024-03-06T14:10:36.514Z,12.87
2024-03-06T14:13:04.299Z,13.83
2024-03-06T14:15:31.113Z,16.23
2024-03-06T14:17:58.198Z,20.00
2024-03-06T14:20:25.407Z,32.73
2024-03-06T14:22:52.487Z,17.13
2024-03-06T14:25:19.426Z,43.37
2024-03-06T14:27:47.377Z,30.50
2024-03-06T14:30:16.283Z,27.37
2024-03-06T14:32:43.133Z,12.00
2024-03-06T14:35:10.425Z,13.10
2024-03-06T14:37:37.281Z,16.03
2024-03-06T14:40:09.573Z,17.90
2024-03-06T14:42:39.556Z,11.43
2024-03-06T14:45:06.820Z,12.67
2024-03-06T14:47:34.667Z,12.37
2024-03-06T14:50:01.819Z,19.07
2024-03-06T14:52:31.332Z,11.50
2024-03-06T14:54:58.037Z,15.20
2024-03-06T14:57:25.109Z,11.27
2024-03-06T14:59:52.559Z,11.30
2024-03-06T15:02:20.178Z,13.23
2024-03-06T15:04:47.149Z,19.43
2024-03-06T15:07:14.247Z,16.07
2024-03-06T15:09:41.040Z,14.53
2024-03-06T15:12:08.599Z,12.20
2024-03-06T15:14:39.953Z,10.80
2024-03-06T15:17:13.159Z,11.70
2024-03-06T15:19:42.818Z,14.10
2024-03-06T15:22:09.526Z,14.73
2024-03-06T15:24:36.325Z,12.57
2024-03-06T15:27:03.318Z,12.10
2024-03-06T15:29:30.246Z,9.67
2024-03-06T15:31:57.072Z,11.40
2024-03-06T15:34:23.867Z,11.97
2024-03-06T15:36:51.966Z,10.10
2024-03-06T15:39:20.107Z,11.03
2024-03-06T15:41:46.970Z,9.83
2024-03-06T15:44:14.477Z,11.17
2024-03-06T15:46:45.863Z,13.67
2024-03-06T15:49:26.551Z,13.50
2024-03-06T15:51:55.155Z,10.37
2024-03-06T15:54:25.043Z,11.53
2024-03-06T15:56:51.955Z,20.90
2024-03-06T15:59:18.983Z,50.77
2024-03-06T16:01:46.213Z,97.17
2024-03-06T16:04:14.252Z,37.10
2024-03-06T16:06:41.920Z,20.40
2024-03-06T16:09:15.321Z,17.50
2024-03-06T16:11:42.815Z,14.13
2024-03-06T16:14:10.220Z,12.53
2024-03-06T16:16:37.268Z,10.57
2024-03-06T16:19:04.218Z,10.57
2024-03-06T16:21:32.677Z,14.07
2024-03-06T16:23:59.552Z,13.07
2024-03-06T16:26:30.700Z,12.30
2024-03-06T16:28:59.861Z,13.80
2024-03-06T16:31:26.811Z,12.77
2024-03-06T16:33:53.963Z,13.47
2024-03-06T16:36:22.697Z,13.07
2024-03-06T16:38:49.818Z,14.40
2024-03-06T16:41:17.008Z,13.63
2024-03-06T16:43:46.863Z,10.23
2024-03-06T16:46:13.822Z,12.43
2024-03-06T16:48:40.719Z,12.40
2024-03-06T16:51:07.544Z,12.13
2024-03-06T16:53:34.514Z,12.67
2024-03-06T16:56:01.395Z,14.43
2024-03-06T16:58:28.210Z,14.67
2024-03-06T17:00:55.059Z,13.03
2024-03-06T17:03:21.917Z,13.47
2024-03-06T17:05:48.711Z,12.70
2024-03-06T17:08:16.862Z,13.00
2024-03-06T17:10:44.660Z,15.03
2024-03-06T17:13:11.720Z,14.13
2024-03-06T17:15:38.610Z,10.93
2024-03-06T17:21:19.741Z,12.83
2024-03-06T17:23:50.357Z,13.83
2024-03-06T17:26:17.356Z,11.30
2024-03-06T17:28:44.385Z,12.60
2024-03-06T17:31:11.302Z,11.73
2024-03-06T17:33:38.170Z,11.57
2024-03-06T17:36:06.607Z,12.57
2024-03-06T17:38:35.034Z,15.37
2024-03-06T17:41:01.930Z,15.50
2024-03-06T17:43:28.872Z,17.07
2024-03-06T17:45:55.650Z,32.93
2024-03-06T17:48:22.573Z,37.73
2024-03-06T17:50:49.396Z,35.33
2024-03-06T17:53:16.980Z,44.10
2024-03-06T17:55:43.777Z,67.30
2024-03-06T17:58:10.743Z,17.93
2024-03-06T18:00:37.792Z,17.03
2024-03-06T18:03:04.995Z,17.07
2024-03-06T18:05:31.889Z,15.40
2024-03-06T18:07:59.000Z,15.93
2024-03-06T18:10:25.893Z,14.83
2024-03-06T18:12:52.781Z,12.13
2024-03-06T18:15:19.543Z,15.53
2024-03-06T18:17:46.576Z,16.00
2024-03-06T18:20:14.245Z,14.73
2024-03-06T18:22:42.107Z,17.33
2024-03-06T18:25:09.996Z,13.87
2024-03-06T18:27:37.051Z,14.50
2024-03-06T18:30:05.110Z,15.67
2024-03-06T18:32:32.362Z,14.17
2024-03-06T18:34:59.383Z,14.07
2024-03-06T18:37:26.354Z,14.30
2024-03-06T18:39:53.260Z,14.17
2024-03-06T18:42:21.908Z,10.47
2024-03-06T18:44:49.803Z,12.63
2024-03-06T18:47:17.023Z,12.17
2024-03-06T18:49:44.079Z,16.00
2024-03-06T18:52:11.597Z,14.23
2024-03-06T18:54:41.020Z,16.27
2024-03-06T18:57:09.485Z,14.83
2024-03-06T18:59:36.614Z,12.00
2024-03-06T19:02:04.248Z,17.60
2024-03-06T19:04:38.110Z,13.30
2024-03-06T19:07:06.058Z,13.77
2024-03-06T19:09:32.829Z,13.43
2024-03-06T19:11:59.712Z,12.27
2024-03-06T19:14:26.652Z,14.40
2024-03-06T19:16:53.504Z,12.93
2024-03-06T19:19:20.417Z,13.27
2024-03-06T19:21:49.355Z,16.33
2024-03-06T19:24:17.844Z,14.13
2024-03-06T19:26:45.002Z,28.27
2024-03-06T19:29:12.021Z,33.37
2024-03-06T19:31:39.137Z,27.97
2024-03-06T19:34:07.120Z,24.20
2024-03-06T19:36:34.164Z,24.40
2024-03-06T19:39:05.932Z,83.73
2024-03-06T19:41:33.021Z,34.60
2024-03-06T19:44:00.001Z,19.63
2024-03-06T19:46:26.722Z,15.70
2024-03-06T19:48:55.813Z,18.67
2024-03-06T19:51:23.807Z,12.03
2024-03-06T19:53:53.530Z,16.70
2024-03-06T19:56:20.743Z,14.47
2024-03-06T19:59:13.220Z,18.63
2024-03-06T20:01:41.433Z,16.27
2024-03-06T20:04:12.125Z,15.47
2024-03-06T20:06:39.415Z,15.97
2024-03-06T20:09:06.489Z,16.87
2024-03-06T20:11:34.193Z,16.33
2024-03-06T20:14:06.470Z,16.10
2024-03-06T20:16:36.186Z,16.30
2024-03-06T20:19:03.390Z,15.00
2024-03-06T20:21:32.410Z,15.17
2024-03-06T20:24:00.647Z,16.27
2024-03-06T20:26:27.978Z,14.10
2024-03-06T20:28:55.341Z,15.10
2024-03-06T20:31:22.890Z,15.10
2024-03-06T20:33:54.933Z,18.33
2024-03-06T20:36:22.082Z,17.60
2024-03-06T20:38:49.484Z,17.27
2024-03-06T20:41:17.970Z,18.97
2024-03-06T20:43:44.851Z,17.37
2024-03-06T20:46:12.003Z,17.27
2024-03-06T20:48:38.937Z,15.57
2024-03-06T20:51:10.400Z,26.37
2024-03-06T20:53:37.254Z,29.30
2024-03-06T20:56:08.654Z,24.37
2024-03-06T20:58:36.657Z,24.93
2024-03-06T21:01:05.638Z,49.70
2024-03-06T21:03:32.933Z,31.57
2024-03-06T21:06:00.413Z,33.87
2024-03-06T21:08:28.556Z,26.03
2024-03-06T21:10:55.572Z,19.00
2024-03-06T21:13:22.563Z,19.87
2024-03-06T21:15:49.454Z,18.50
2024-03-06T21:18:17.408Z,19.13
2024-03-06T21:20:45.283Z,19.17
2024-03-06T21:23:11.984Z,25.37
2024-03-06T21:25:38.850Z,18.67
2024-03-06T21:28:05.702Z,16.60
2024-03-06T21:30:32.733Z,21.47
2024-03-06T21:33:00.612Z,21.73
2024-03-06T21:35:27.523Z,21.73
2024-03-06T21:37:56.413Z,21.30
2024-03-06T21:40:25.222Z,21.83
2024-03-06T21:42:53.545Z,20.43
2024-03-06T21:45:20.293Z,32.53
2024-03-06T21:47:47.167Z,21.90
2024-03-06T21:50:14.331Z,25.00
2024-03-06T21:52:41.264Z,24.97
2024-03-06T21:55:09.693Z,22.50
2024-03-06T21:57:36.476Z,24.80
2024-03-06T22:00:05.142Z,22.37
2024-03-06T22:02:32.985Z,23.50
2024-03-06T22:04:59.894Z,22.17
2024-03-06T22:07:28.297Z,23.63
2024-03-06T22:09:55.151Z,21.87
2024-03-06T22:12:23.990Z,26.47
2024-03-06T22:14:51.013Z,23.60
2024-03-06T22:17:19.478Z,23.77
2024-03-06T22:19:46.207Z,26.97
2024-03-06T22:22:13.585Z,25.47
2024-03-06T22:24:41.264Z,27.60
2024-03-06T22:27:08.094Z,23.93
2024-03-06T22:29:35.014Z,25.27
2024-03-06T22:32:02.313Z,25.17
2024-03-06T22:34:29.047Z,22.47
2024-03-06T22:36:58.203Z,22.10
2024-03-06T22:39:27.482Z,23.50
2024-03-06T22:41:54.299Z,22.73
2024-03-06T22:44:21.208Z,26.33
2024-03-06T22:46:51.614Z,27.00
2024-03-06T22:49:23.037Z,22.63
2024-03-06T22:51:49.970Z,25.43
2024-03-06T22:54:17.373Z,23.17
2024-03-06T22:56:47.223Z,29.53
2024-03-06T22:59:14.089Z,24.40
2024-03-06T23:01:41.112Z,26.93
2024-03-06T23:04:08.297Z,27.87
2024-03-06T23:06:35.268Z,25.93
2024-03-06T23:09:02.107Z,22.63
2024-03-06T23:11:30.593Z,21.27
2024-03-06T23:13:57.795Z,24.20
2024-03-06T23:16:27.610Z,27.63
2024-03-06T23:18:57.220Z,23.77
2024-03-06T23:21:24.363Z,26.57
2024-03-06T23:23:51.471Z,24.90
2024-03-06T23:26:19.504Z,23.60
2024-03-06T23:28:46.485Z,25.37
2024-03-06T23:31:13.989Z,25.97
2024-03-06T23:33:40.878Z,27.17
2024-03-06T23:36:07.987Z,26.17
2024-03-06T23:38:34.889Z,22.67
2024-03-06T23:41:01.982Z,24.43
2024-03-06T23:43:29.093Z,25.53
2024-03-06T23:45:56.329Z,25.27
2024-03-06T23:48:24.841Z,26.37
2024-03-06T23:50:51.841Z,25.70
2024-03-06T23:53:18.846Z,28.23
2024-03-06T23:55:46.779Z,22.27
2024-03-06T23:58:17.454Z,29.63
